Time;durP1;ratioP1;P1;durP2;ratioP2;P2;SDS_P1;SDS_P2;PMS_P1;PMS_P2;Temp;Humidity;BMP_temperature;BMP_pressure;BME280_temperature;BME280_humidity;BME280_pressure;Samples;Min_cycle;Max_cycle;Signal;HPM_P1;HPM_P2
2024/04/06 00:00:25;;;;;;;5.97;3.17;;;;;;;13.15;100.00;101071.13;6157059;28;20234;-74
2024/04/06 00:03:46;;;;;;;9.53;4.53;;;;;;;13.25;100.00;101075.50;6167267;28;20239;-73
2024/04/06 00:07:08;;;;;;;5.50;3.00;;;;;;;13.23;100.00;101077.50;6159598;28;20560;-73
2024/04/06 00:10:29;;;;;;;5.93;3.03;;;;;;;13.23;100.00;101077.50;6159529;28;20608;-73
2024/04/06 00:13:51;;;;;;;9.53;3.57;;;;;;;13.20;100.00;101071.53;6155877;28;20508;-73
2024/04/06 00:17:12;;;;;;;11.67;4.73;;;;;;;13.17;100.00;101071.81;6161382;28;20226;-74
2024/04/06 00:20:34;;;;;;;5.77;2.40;;;;;;;13.15;100.00;101084.66;6161380;28;20234;-73
2024/04/06 00:23:56;;;;;;;8.63;3.43;;;;;;;13.14;100.00;101074.84;6152958;28;20238;-73
2024/04/06 00:27:18;;;;;;;5.40;3.57;;;;;;;13.17;100.00;101085.34;6145241;28;20267;-74
2024/04/06 00:30:39;;;;;;;11.30;3.80;;;;;;;13.11;100.00;101091.38;6159479;28;20599;-73
2024/04/06 00:34:02;;;;;;;5.03;3.03;;;;;;;13.09;100.00;101087.94;6163796;28;20649;-73
2024/04/06 00:37:23;;;;;;;6.03;3.80;;;;;;;13.11;100.00;101096.78;6161320;28;20278;-74
2024/04/06 00:40:45;;;;;;;4.03;2.20;;;;;;;13.05;100.00;101092.81;6143875;28;20235;-74
2024/04/06 00:44:07;;;;;;;8.30;3.63;;;;;;;13.05;100.00;101100.94;6153197;28;20252;-74
2024/04/06 00:47:27;;;;;;;16.53;4.30;;;;;;;13.09;100.00;101107.75;6162390;28;20234;-74
2024/04/06 00:50:49;;;;;;;3.83;2.93;;;;;;;13.07;100.00;101108.91;6168503;28;20225;-73
2024/04/06 00:54:11;;;;;;;8.73;3.63;;;;;;;13.07;100.00;101107.06;6174532;28;20226;-73
2024/04/06 00:57:32;;;;;;;7.23;3.73;;;;;;;13.05;100.00;101110.91;6174389;28;20233;-73
2024/04/06 01:00:53;;;;;;;7.87;3.63;;;;;;;13.07;100.00;101123.28;6159952;28;20230;-73
2024/04/06 01:04:14;;;;;;;6.13;3.63;;;;;;;13.06;100.00;101107.22;6145637;28;20321;-73
2024/04/06 01:07:39;;;;;;;5.57;4.83;;;;;;;13.12;100.00;101112.03;6171194;28;20237;-74
2024/04/06 01:11:00;;;;;;;7.53;3.70;;;;;;;13.11;100.00;101113.03;6179392;28;20226;-74
2024/04/06 01:14:22;;;;;;;6.90;3.20;;;;;;;13.08;100.00;101111.44;6187608;28;20238;-74
2024/04/06 01:17:42;;;;;;;6.37;3.33;;;;;;;13.07;100.00;101114.31;6167905;28;20719;-74
2024/04/06 01:21:04;;;;;;;4.50;2.53;;;;;;;13.06;100.00;101118.03;6170123;28;20314;-74
2024/04/06 01:24:26;;;;;;;12.03;3.97;;;;;;;13.06;100.00;101112.63;6141007;28;20230;-74
2024/04/06 01:27:46;;;;;;;5.27;3.03;;;;;;;13.07;100.00;101119.72;6171483;28;20804;-73
2024/04/06 01:31:06;;;;;;;5.53;3.50;;;;;;;13.03;100.00;101123.69;6167527;28;20238;-74
2024/04/06 01:34:27;;;;;;;7.40;3.27;;;;;;;12.97;100.00;101125.13;6160514;28;20752;-74
2024/04/06 01:37:48;;;;;;;6.90;3.00;;;;;;;12.97;100.00;101130.56;6172170;28;20503;-73
2024/04/06 01:41:09;;;;;;;8.80;3.40;;;;;;;13.00;100.00;101140.22;6166646;28;20543;-73
2024/04/06 01:44:30;;;;;;;6.27;2.80;;;;;;;13.01;100.00;101134.69;6168972;28;20234;-73
2024/04/06 01:47:52;;;;;;;10.20;2.87;;;;;;;12.96;100.00;101138.78;6168574;28;20230;-73
2024/04/06 01:51:12;;;;;;;5.87;3.23;;;;;;;12.91;100.00;101139.25;6165208;28;20231;-73
2024/04/06 01:54:33;;;;;;;5.13;3.00;;;;;;;12.83;100.00;101145.38;6166815;28;20258;-74
2024/04/06 01:57:56;;;;;;;9.87;3.63;;;;;;;12.77;100.00;101154.06;6136153;28;20234;-73
2024/04/06 02:01:16;;;;;;;4.67;3.47;;;;;;;12.80;100.00;101155.63;6164913;28;20234;-74
2024/04/06 02:04:37;;;;;;;11.47;3.07;;;;;;;12.75;100.00;101164.16;6165217;28;20234;-74
2024/04/06 02:07:57;;;;;;;7.70;3.87;;;;;;;12.70;100.00;101166.44;6161404;28;20235;-74
2024/04/06 02:11:18;;;;;;;8.23;3.33;;;;;;;12.72;100.00;101163.63;6148918;28;20250;-73
2024/04/06 02:14:40;;;;;;;6.27;2.50;;;;;;;12.73;100.00;101177.00;6163253;28;20254;-73
2024/04/06 02:18:01;;;;;;;8.90;3.23;;;;;;;12.72;100.00;101171.72;6161765;28;20230;-73
2024/04/06 02:21:22;;;;;;;5.60;2.60;;;;;;;12.71;100.00;101172.72;6153353;28;20231;-73
2024/04/06 02:24:43;;;;;;;5.30;3.43;;;;;;;12.71;100.00;101175.41;6170810;28;20623;-74
2024/04/06 02:28:05;;;;;;;5.30;2.37;;;;;;;12.74;100.00;101175.16;6159843;28;20234;-73
2024/04/06 02:31:28;;;;;;;12.63;4.27;;;;;;;12.76;100.00;101182.13;6157864;28;20275;-74
2024/04/06 02:34:49;;;;;;;7.70;3.10;;;;;;;12.79;100.00;101179.13;6163298;28;20230;-74
2024/04/06 02:38:09;;;;;;;6.90;3.63;;;;;;;12.83;100.00;101180.53;6167486;28;20249;-74
2024/04/06 02:41:30;;;;;;;7.60;3.77;;;;;;;12.87;100.00;101186.50;6156227;28;20223;-75
2024/04/06 02:44:50;;;;;;;4.07;2.20;;;;;;;12.94;100.00;101184.94;6167964;28;20238;-75
2024/04/06 02:48:12;;;;;;;5.50;3.10;;;;;;;12.93;100.00;101177.84;6158277;28;20615;-75
2024/04/06 02:51:33;;;;;;;6.47;2.83;;;;;;;12.85;100.00;101181.25;6159019;28;20230;-75
2024/04/06 02:54:53;;;;;;;5.80;3.67;;;;;;;12.88;100.00;101172.00;6159303;28;20746;-75
2024/04/06 02:58:14;;;;;;;10.53;3.27;;;;;;;12.92;100.00;101184.25;6139047;28;20234;-75
2024/04/06 03:01:35;;;;;;;4.27;2.50;;;;;;;12.96;100.00;101176.69;6148048;28;20222;-75
2024/04/06 03:04:57;;;;;;;9.70;3.77;;;;;;;12.95;100.00;101172.28;6166408;28;20264;-75
2024/04/06 03:08:18;;;;;;;6.73;3.87;;;;;;;12.94;100.00;101170.56;6173492;28;20376;-74
2024/04/06 03:11:39;;;;;;;3.20;2.80;;;;;;;12.94;100.00;101175.97;6155515;28;20502;-75
2024/04/06 03:14:59;;;;;;;11.13;4.13;;;;;;;12.96;100.00;101177.53;6177269;28;20234;-75
2024/04/06 03:18:19;;;;;;;5.57;2.80;;;;;;;12.87;100.00;101182.97;6168198;28;20233;-75
2024/04/06 03:21:41;;;;;;;4.77;3.10;;;;;;;12.80;100.00;101188.97;6170852;28;20238;-75
2024/04/06 03:25:02;;;;;;;6.37;3.07;;;;;;;12.80;100.00;101199.78;6165714;28;20235;-75
2024/04/06 03:28:23;;;;;;;2.90;2.30;;;;;;;12.72;100.00;101196.91;6173288;28;20632;-74
2024/04/06 03:31:43;;;;;;;3.20;2.80;;;;;;;12.69;100.00;101205.31;6161337;28;20237;-75
2024/04/06 03:35:05;;;;;;;4.50;2.73;;;;;;;12.66;100.00;101205.59;6162180;28;20600;-75
2024/04/06 03:38:27;;;;;;;5.33;2.30;;;;;;;12.72;100.00;101206.91;6151982;28;20230;-75
2024/04/06 03:41:47;;;;;;;5.57;3.00;;;;;;;12.67;100.00;101199.19;6165133;28;20304;-74
2024/04/06 03:45:10;;;;;;;7.17;3.03;;;;;;;12.61;100.00;101209.72;6151709;28;20230;-75
2024/04/06 03:48:32;;;;;;;4.90;3.20;;;;;;;12.55;100.00;101213.00;6163575;28;21059;-75
2024/04/06 03:51:53;;;;;;;4.73;2.80;;;;;;;12.52;100.00;101211.44;6157862;28;20584;-74
2024/04/06 03:55:15;;;;;;;6.37;3.53;;;;;;;12.58;100.00;101210.84;6146891;28;21706;-74
2024/04/06 03:58:36;;;;;;;4.73;3.00;;;;;;;12.51;100.00;101220.56;6163662;28;20234;-74
2024/04/06 04:01:57;;;;;;;7.47;2.77;;;;;;;12.47;100.00;101221.81;6156229;28;20222;-74
2024/04/06 04:05:18;;;;;;;3.73;3.10;;;;;;;12.43;100.00;101223.06;6145983;28;20231;-75
2024/04/06 04:08:38;;;;;;;3.07;2.50;;;;;;;12.42;100.00;101231.34;6173692;28;20259;-74
2024/04/06 04:12:00;;;;;;;16.30;3.83;;;;;;;12.43;100.00;101227.66;6167238;28;20229;-74
2024/04/06 04:15:21;;;;;;;5.10;3.47;;;;;;;12.37;100.00;101223.63;6163906;28;20238;-74
2024/04/06 04:18:42;;;;;;;14.77;3.00;;;;;;;12.39;100.00;101226.22;6158629;28;20592;-74
2024/04/06 04:22:03;;;;;;;4.60;2.93;;;;;;;12.37;100.00;101229.03;6150224;28;20337;-74
2024/04/06 04:25:24;;;;;;;4.07;3.47;;;;;;;12.34;100.00;101233.88;6166993;28;20226;-74
2024/04/06 04:28:45;;;;;;;2.90;2.57;;;;;;;12.30;100.00;101237.84;6169774;28;20238;-75
2024/04/06 04:32:07;;;;;;;4.73;2.73;;;;;;;12.28;100.00;101229.88;6161423;28;20230;-74
2024/04/06 04:35:27;;;;;;;7.60;3.93;;;;;;;12.25;100.00;101232.84;6156774;28;20242;-74
2024/04/06 04:38:48;;;;;;;8.37;2.80;;;;;;;12.24;100.00;101225.75;6168976;28;20745;-74
2024/04/06 04:42:09;;;;;;;3.97;3.63;;;;;;;12.25;100.00;101213.94;6167100;28;20241;-74
2024/04/06 04:45:31;;;;;;;8.73;3.67;;;;;;;12.22;100.00;101218.78;6161114;28;20482;-74
2024/04/06 04:48:52;;;;;;;4.53;2.70;;;;;;;12.31;100.00;101216.06;6165262;28;20258;-74
2024/04/06 04:52:13;;;;;;;3.73;3.13;;;;;;;12.32;100.00;101215.09;6163112;28;20226;-74
2024/04/06 04:55:33;;;;;;;8.63;3.33;;;;;;;12.44;100.00;101227.50;6167997;28;20262;-74
2024/04/06 04:58:54;;;;;;;7.20;3.53;;;;;;;12.62;100.00;101217.69;6167896;28;20234;-74
2024/04/06 05:02:16;;;;;;;10.03;3.50;;;;;;;12.61;100.00;101221.41;6159927;28;20398;-74
2024/04/06 05:05:36;;;;;;;6.97;3.30;;;;;;;12.61;100.00;101232.22;6160987;28;20226;-74
2024/04/06 05:08:58;;;;;;;5.33;4.23;;;;;;;12.62;100.00;101233.91;6166808;28;20675;-74
2024/04/06 05:12:18;;;;;;;5.47;3.53;;;;;;;12.43;100.00;101230.34;6155387;28;20257;-74
2024/04/06 05:15:38;;;;;;;5.80;3.40;;;;;;;12.40;100.00;101226.06;6164278;28;20233;-74
2024/04/06 05:19:05;;;;;;;5.43;3.73;;;;;;;12.49;100.00;101227.09;6166862;28;20226;-74
2024/04/06 05:22:26;;;;;;;3.67;3.17;;;;;;;12.42;100.00;101224.09;6151160;28;20222;-75
2024/04/06 05:25:47;;;;;;;6.33;3.70;;;;;;;12.29;100.00;101215.38;6154936;28;20226;-75
2024/04/06 05:29:08;;;;;;;9.23;4.23;;;;;;;12.20;100.00;101208.09;6169618;28;20230;-74
2024/04/06 05:32:29;;;;;;;7.50;3.70;;;;;;;12.12;100.00;101209.78;6152158;28;20226;-74
2024/04/06 05:35:51;;;;;;;4.03;3.17;;;;;;;12.32;100.00;101230.47;6162789;28;20235;-75
2024/04/06 05:39:12;;;;;;;6.43;3.47;;;;;;;12.47;100.00;101219.13;6171200;28;20620;-74
2024/04/06 05:42:33;;;;;;;4.27;3.37;;;;;;;12.41;100.00;101227.75;6157719;28;20238;-74
2024/04/06 05:46:00;;;;;;;3.67;3.37;;;;;;;12.44;100.00;101223.94;6171182;28;20226;-74
2024/04/06 05:49:20;;;;;;;8.93;4.60;;;;;;;12.40;100.00;101220.66;6150612;28;20235;-74
2024/04/06 05:52:42;;;;;;;3.60;2.97;;;;;;;12.33;100.00;101219.50;6166799;28;20285;-74
2024/04/06 05:56:03;;;;;;;4.03;3.73;;;;;;;12.40;100.00;101228.78;6157131;28;20637;-75
2024/04/06 05:59:23;;;;;;;4.00;3.63;;;;;;;12.48;100.00;101228.94;6148352;28;20599;-74
2024/04/06 06:02:44;;;;;;;6.53;4.37;;;;;;;12.55;100.00;101231.94;6156656;28;20230;-74
2024/04/06 06:06:05;;;;;;;5.67;3.77;;;;;;;12.69;100.00;101259.44;6164993;28;20226;-73
2024/04/06 06:09:26;;;;;;;5.23;3.77;;;;;;;12.73;100.00;101251.88;6173430;28;20236;-73
2024/04/06 06:12:47;;;;;;;4.47;3.93;;;;;;;12.82;100.00;101265.44;6176683;28;20230;-74
2024/04/06 06:16:08;;;;;;;7.47;3.80;;;;;;;12.83;100.00;101271.69;6168358;28;20230;-73
2024/04/06 06:19:28;;;;;;;6.00;4.10;;;;;;;12.80;100.00;101274.69;6179290;28;20229;-74
2024/04/06 06:22:49;;;;;;;6.40;3.70;;;;;;;12.81;100.00;101288.06;6169220;28;20231;-74
2024/04/06 06:26:12;;;;;;;5.60;3.23;;;;;;;12.75;100.00;101294.03;6153057;28;20230;-73
2024/04/06 06:29:33;;;;;;;9.23;3.93;;;;;;;12.80;100.00;101299.91;6160689;28;22428;-74
2024/04/06 06:32:53;;;;;;;8.07;4.07;;;;;;;12.91;100.00;101292.63;6154530;28;20226;-74
2024/04/06 06:36:14;;;;;;;9.10;3.73;;;;;;;13.01;100.00;101293.50;6154933;28;20230;-74
2024/04/06 06:39:35;;;;;;;9.63;5.03;;;;;;;13.08;100.00;101294.69;6171181;28;20313;-74
2024/04/06 06:42:56;;;;;;;8.57;4.53;;;;;;;13.17;100.00;101289.25;6153838;28;20480;-74
2024/04/06 06:46:17;;;;;;;7.80;4.97;;;;;;;13.26;100.00;101287.53;6141675;28;20238;-73
2024/04/06 06:49:38;;;;;;;5.57;4.60;;;;;;;13.38;100.00;101292.66;6147469;28;20230;-73
2024/04/06 06:52:59;;;;;;;7.20;5.00;;;;;;;13.62;100.00;101312.00;6145346;28;20237;-74
2024/04/06 06:56:20;;;;;;;5.70;3.97;;;;;;;13.62;100.00;101309.31;6159097;28;21025;-73
2024/04/06 06:59:42;;;;;;;4.67;3.83;;;;;;;13.79;100.00;101302.28;6150443;28;20574;-74
2024/04/06 07:03:03;;;;;;;5.33;3.67;;;;;;;14.06;100.00;101293.38;6154241;28;20466;-74
2024/04/06 07:06:24;;;;;;;5.77;3.50;;;;;;;14.26;100.00;101303.13;6157524;28;20334;-72
2024/04/06 07:09:44;;;;;;;9.37;4.20;;;;;;;14.43;100.00;101309.66;6173811;28;20241;-71
2024/04/06 07:13:05;;;;;;;10.43;5.20;;;;;;;14.60;100.00;101317.00;6171899;28;20235;-70
2024/04/06 07:16:28;;;;;;;5.73;5.13;;;;;;;14.73;100.00;101312.91;6171415;28;20308;-71
2024/04/06 07:19:49;;;;;;;8.00;6.27;;;;;;;15.02;100.00;101307.28;6165610;28;20242;-73
2024/04/06 07:23:09;;;;;;;7.57;5.80;;;;;;;15.26;100.00;101325.69;6163763;28;20234;-71
2024/04/06 07:26:30;;;;;;;5.93;4.63;;;;;;;15.18;100.00;101334.63;6168358;28;20254;-71
2024/04/06 07:29:50;;;;;;;6.57;4.10;;;;;;;14.59;100.00;101348.69;6157548;28;20230;-69
2024/04/06 07:33:13;;;;;;;7.00;4.60;;;;;;;14.61;100.00;101343.97;6156806;28;20226;-72
2024/04/06 07:36:34;;;;;;;5.30;4.77;;;;;;;14.77;100.00;101348.75;6153446;28;20597;-71
2024/04/06 07:39:55;;;;;;;6.70;4.07;;;;;;;15.07;100.00;101334.84;6159758;28;20256;-73
2024/04/06 07:43:16;;;;;;;4.87;4.37;;;;;;;15.32;100.00;101333.22;6163950;28;20349;-72
2024/04/06 07:46:36;;;;;;;12.57;4.67;;;;;;;15.63;100.00;101321.81;6143001;28;20222;-72
2024/04/06 07:49:59;;;;;;;5.07;4.37;;;;;;;15.82;100.00;101320.75;6161943;28;20227;-72
2024/04/06 07:53:19;;;;;;;7.37;4.73;;;;;;;16.22;100.00;101312.88;6156151;28;20254;-72
2024/04/06 07:56:40;;;;;;;7.67;4.60;;;;;;;16.43;100.00;101313.31;6160081;28;20257;-72
2024/04/06 08:00:01;;;;;;;5.50;3.97;;;;;;;16.22;100.00;101317.44;6162023;28;20235;-71
2024/04/06 08:03:24;;;;;;;4.83;3.90;;;;;;;15.83;100.00;101326.03;6161272;28;20226;-73
2024/04/06 08:06:46;;;;;;;4.40;3.40;;;;;;;15.76;100.00;101330.41;6151096;28;20230;-72
2024/04/06 08:10:14;;;;;;;5.47;4.97;;;;;;;15.92;100.00;101327.81;6165089;28;21489;-73
2024/04/06 08:13:35;;;;;;;9.03;4.50;;;;;;;16.30;100.00;101314.75;6162588;28;20237;-73
2024/04/06 08:16:56;;;;;;;5.07;3.70;;;;;;;16.30;100.00;101314.75;6165186;28;20329;-72
2024/04/06 08:20:17;;;;;;;5.00;4.50;;;;;;;16.32;100.00;101324.47;6164028;28;20230;-71
2024/04/06 08:23:39;;;;;;;6.47;4.27;;;;;;;16.33;100.00;101325.34;6170056;28;20497;-72
2024/04/06 08:27:00;;;;;;;5.63;4.00;;;;;;;16.59;100.00;101321.56;6164679;28;20230;-72
2024/04/06 08:30:22;;;;;;;5.00;3.50;;;;;;;16.33;100.00;101323.47;6164052;28;20247;-70
2024/04/06 08:33:43;;;;;;;4.23;3.70;;;;;;;16.27;100.00;101332.25;6173041;28;20238;-71
2024/04/06 08:37:04;;;;;;;4.93;4.10;;;;;;;16.48;100.00;101334.59;6166981;28;21013;-72
2024/04/06 08:40:27;;;;;;;4.90;4.00;;;;;;;16.75;100.00;101320.78;6148267;28;20226;-70
2024/04/06 08:43:55;;;;;;;8.23;3.87;;;;;;;17.12;100.00;101310.34;6163949;28;20226;-73
2024/04/06 08:47:16;;;;;;;3.30;3.00;;;;;;;17.31;100.00;101312.72;6159236;28;20324;-73
2024/04/06 08:50:38;;;;;;;6.75;4.10;;;;;;;17.35;100.00;101318.69;6149280;28;20624;-73
2024/04/06 08:53:59;;;;;;;3.93;3.47;;;;;;;16.82;100.00;101313.66;6151303;28;20226;-72
2024/04/06 08:57:22;;;;;;;4.70;4.40;;;;;;;16.94;100.00;101308.75;6157647;28;23534;-73
2024/04/06 09:00:44;;;;;;;5.87;4.27;;;;;;;17.07;100.00;101315.41;6155180;28;20234;-73
2024/04/06 09:04:03;;;;;;;9.47;5.13;;;;;;;17.02;100.00;101297.88;6143233;28;20637;-74
2024/04/06 09:07:25;;;;;;;5.13;4.10;;;;;;;17.29;100.00;101290.22;6159189;28;20230;-73
2024/04/06 09:10:49;;;;;;;5.40;4.33;;;;;;;17.55;100.00;101299.16;6165154;28;20325;-72
2024/04/06 09:14:12;;;;;;;5.35;4.00;;;;;;;17.76;100.00;101317.72;6174181;28;20226;-72
2024/04/06 09:17:33;;;;;;;5.00;4.50;;;;;;;17.67;100.00;101320.63;6172297;28;20226;-72
2024/04/06 09:20:54;;;;;;;4.50;4.15;;;;;;;17.85;100.00;101313.97;6167445;28;20234;-72
2024/04/06 09:24:14;;;;;;;5.50;3.88;;;;;;;17.99;100.00;101301.47;6176999;28;20607;-73
2024/04/06 09:27:34;;;;;;;5.85;4.07;;;;;;;18.23;100.00;101287.78;6167622;28;20241;-73
2024/04/06 09:30:58;;;;;;;6.38;4.55;;;;;;;18.67;100.00;101286.25;6165703;28;20288;-72
2024/04/06 09:34:19;;;;;;;4.05;3.65;;;;;;;18.50;100.00;101292.84;6182324;28;20582;-72
2024/04/06 09:37:42;;;;;;;4.32;3.53;;;;;;;18.88;100.00;101281.00;6169834;28;20269;-72
2024/04/06 09:41:03;;;;;;;5.75;3.90;;;;;;;18.74;100.00;101295.44;6168415;28;20252;-73
2024/04/06 09:44:26;;;;;;;7.68;4.90;;;;;;;18.82;100.00;101295.38;6172332;28;20238;-73
2024/04/06 09:47:47;;;;;;;4.80;3.47;;;;;;;18.91;100.00;101291.59;6175457;28;20238;-72
2024/04/06 09:51:09;;;;;;;5.00;3.97;;;;;;;18.64;100.00;101277.56;6176976;28;20321;-73
2024/04/06 09:54:29;;;;;;;5.40;4.07;;;;;;;19.02;100.00;101255.63;6174932;28;20241;-71
2024/04/06 09:57:51;;;;;;;5.05;4.60;;;;;;;18.97;100.00;101271.72;6169188;28;20583;-72
2024/04/06 10:01:11;;;;;;;4.32;3.67;;;;;;;18.71;100.00;101284.84;6166559;28;20235;-72
2024/04/06 10:04:37;;;;;;;3.92;3.63;;;;;;;19.11;100.00;101284.59;6171213;28;20231;-71
2024/04/06 10:08:02;;;;;;;7.15;5.50;;;;;;;19.08;100.00;101279.53;6162429;28;20230;-71
2024/04/06 10:11:25;;;;;;;4.45;3.42;;;;;;;19.11;100.00;101281.03;6164688;28;20920;-72
2024/04/06 10:14:45;;;;;;;5.05;3.70;;;;;;;20.03;100.00;101263.47;6173839;28;20238;-71
2024/04/06 10:18:07;;;;;;;4.47;4.07;;;;;;;20.12;100.00;101260.47;6162579;28;20302;-72
2024/04/06 10:21:32;;;;;;;8.00;4.75;;;;;;;19.93;100.00;101253.66;6159723;28;20229;-73
2024/04/06 10:24:55;;;;;;;3.72;3.10;;;;;;;19.84;100.00;101249.31;6152764;28;20310;-74
2024/04/06 10:28:20;;;;;;;4.57;3.92;;;;;;;19.88;100.00;101255.25;6165659;28;20235;-74
2024/04/06 10:31:40;;;;;;;4.03;3.63;;;;;;;19.74;100.00;101250.59;6148408;28;20242;-74
2024/04/06 10:35:03;;;;;;;3.83;3.53;;;;;;;20.49;100.00;101254.91;6165569;28;20225;-74
2024/04/06 10:38:26;;;;;;;5.72;3.60;;;;;;;20.71;100.00;101251.16;6165854;28;20229;-74
2024/04/06 10:41:50;;;;;;;6.05;3.67;;;;;;;20.53;100.00;101233.44;6159751;28;20346;-74
2024/04/06 10:45:12;;;;;;;4.28;2.83;;;;;;;20.49;100.00;101246.69;6149904;28;20509;-74
2024/04/06 10:48:39;;;;;;;3.78;2.90;;;;;;;20.74;100.00;101241.72;6161854;28;20234;-76
2024/04/06 10:52:00;;;;;;;3.67;2.75;;;;;;;21.16;100.00;101240.94;6157510;28;20337;-74
2024/04/06 10:55:22;;;;;;;3.00;2.72;;;;;;;20.32;100.00;101252.53;6159492;28;20349;-75
2024/04/06 10:58:43;;;;;;;2.38;2.17;;;;;;;21.04;100.00;101251.59;6165074;28;20238;-74
2024/04/06 11:02:06;;;;;;;4.00;2.45;;;;;;;21.31;100.00;101250.78;6157853;28;20249;-75
2024/04/06 11:05:26;;;;;;;2.72;2.53;;;;;;;21.57;100.00;101247.41;6160748;28;20234;-74
2024/04/06 11:08:48;;;;;;;5.60;2.30;;;;;;;21.62;100.00;101244.09;6154964;28;20238;-74
2024/04/06 11:12:11;;;;;;;2.63;2.42;;;;;;;22.82;100.00;101216.09;6165029;28;20238;-74
2024/04/06 11:15:32;;;;;;;1.98;1.77;;;;;;;22.82;100.00;101216.91;6160668;28;20237;-73
2024/04/06 11:18:53;;;;;;;2.75;1.92;;;;;;;23.49;100.00;101208.56;6161944;28;20258;-74
2024/04/06 11:22:14;;;;;;;6.70;1.98;;;;;;;22.99;100.00;101204.47;6160780;28;20253;-73
2024/04/06 11:25:39;;;;;;;2.58;1.63;;;;;;;22.36;100.00;101217.78;6157220;28;20233;-74
2024/04/06 11:29:01;;;;;;;2.58;1.70;;;;;;;22.07;100.00;101216.16;6162389;28;20242;-73
2024/04/06 11:32:23;;;;;;;1.60;1.25;;;;;;;22.82;100.00;101208.66;6150471;28;20225;-74
2024/04/06 11:35:44;;;;;;;2.40;1.50;;;;;;;21.64;100.00;101209.91;6158957;28;20234;-74
2024/04/06 11:39:05;;;;;;;4.10;1.83;;;;;;;21.93;100.00;101201.47;6163949;28;20321;-74
2024/04/06 11:42:26;;;;;;;1.38;1.27;;;;;;;21.49;100.00;101206.41;6156722;28;20234;-74
2024/04/06 11:45:48;;;;;;;2.35;1.60;;;;;;;21.34;100.00;101194.69;6149782;28;20318;-74
2024/04/06 11:49:09;;;;;;;2.65;1.58;;;;;;;21.23;100.00;101197.97;6156291;28;20234;-73
2024/04/06 11:52:29;;;;;;;2.17;1.33;;;;;;;21.52;100.00;101192.31;6133416;28;20229;-73
2024/04/06 11:55:50;;;;;;;1.83;1.42;;;;;;;21.61;100.00;101185.59;6160901;28;20233;-73
2024/04/06 11:59:10;;;;;;;1.92;1.20;;;;;;;21.46;100.00;101185.69;6163612;28;20317;-73
2024/04/06 12:02:32;;;;;;;2.13;1.38;;;;;;;21.61;100.00;101177.34;6159361;28;21524;-72
2024/04/06 12:05:53;;;;;;;1.00;1.00;;;;;;;21.42;100.00;101175.34;6160266;28;20238;-72
2024/04/06 12:09:14;;;;;;;3.25;0.98;;;;;;;21.83;100.00;101164.47;6168071;28;20260;-72
2024/04/06 12:12:34;;;;;;;3.75;1.65;;;;;;;21.75;100.00;101170.06;6157726;28;20242;-73
2024/04/06 12:15:56;;;;;;;1.40;1.08;;;;;;;22.41;100.00;101154.78;6158495;28;20225;-73
2024/04/06 12:19:18;;;;;;;2.45;1.23;;;;;;;22.89;100.00;101161.94;6158716;28;20237;-73
2024/04/06 12:22:38;;;;;;;1.25;1.15;;;;;;;22.54;100.00;101146.59;6156696;28;20352;-73
2024/04/06 12:25:59;;;;;;;2.83;1.17;;;;;;;22.59;100.00;101147.69;6157713;28;20230;-72
2024/04/06 12:29:20;;;;;;;1.60;1.10;;;;;;;22.65;100.00;101138.63;6159547;28;20254;-72
2024/04/06 12:32:42;;;;;;;0.82;0.75;;;;;;;22.39;100.00;101140.41;6159931;28;20242;-72
2024/04/06 12:36:06;;;;;;;1.52;1.05;;;;;;;22.51;100.00;101136.84;6150384;28;20245;-72
2024/04/06 12:39:25;;;;;;;3.17;1.27;;;;;;;22.30;100.00;101130.69;6160303;28;20314;-72
2024/04/06 12:42:47;;;;;;;1.25;0.85;;;;;;;22.16;100.00;101133.38;6123246;28;21023;-72
2024/04/06 12:46:07;;;;;;;2.65;1.15;;;;;;;22.05;100.00;101127.63;6159862;28;20540;-72
2024/04/06 12:49:29;;;;;;;1.15;1.08;;;;;;;22.34;100.00;101124.56;6164107;28;20229;-73
2024/04/06 12:52:50;;;;;;;1.15;0.80;;;;;;;23.09;100.00;101110.56;6160964;28;20238;-72
2024/04/06 12:56:12;;;;;;;2.05;1.40;;;;;;;24.03;100.00;101103.56;6153414;28;20308;-72
2024/04/06 12:59:32;;;;;;;2.97;1.30;;;;;;;24.63;100.00;101120.69;6160640;28;20238;-72
2024/04/06 13:02:53;;;;;;;1.05;0.95;;;;;;;27.54;100.00;101098.22;6156416;28;20242;-73
2024/04/06 13:06:14;;;;;;;2.90;1.33;;;;;;;27.97;91.70;101100.63;6157294;28;20234;-73
2024/04/06 13:09:35;;;;;;;2.65;1.20;;;;;;;29.78;82.09;101084.47;6158844;28;20230;-73
2024/04/06 13:12:56;;;;;;;0.95;0.85;;;;;;;29.78;73.59;101079.75;6158742;28;20237;-73
2024/04/06 13:16:16;;;;;;;0.68;0.68;;;;;;;29.10;74.01;101074.47;6158967;28;20254;-73
2024/04/06 13:19:37;;;;;;;1.83;1.30;;;;;;;29.31;74.94;101064.56;6168760;28;20234;-73
2024/04/06 13:22:58;;;;;;;2.08;1.55;;;;;;;31.84;66.14;101046.59;6179259;28;20660;-73
2024/04/06 13:26:19;;;;;;;1.80;1.13;;;;;;;30.16;66.20;101047.41;6164824;28;20226;-73
2024/04/06 13:29:40;;;;;;;1.70;1.10;;;;;;;28.09;71.11;101037.63;6157575;28;20238;-73
2024/04/06 13:33:02;;;;;;;2.20;1.27;;;;;;;29.97;69.34;101028.28;6138328;28;20258;-73
2024/04/06 13:36:21;;;;;;;1.38;0.90;;;;;;;29.49;65.69;101035.66;6163625;28;20727;-73
2024/04/06 13:39:42;;;;;;;0.73;0.73;;;;;;;28.52;72.79;101040.69;6170601;28;20227;-73
2024/04/06 13:43:05;;;;;;;1.58;0.90;;;;;;;27.48;75.09;101030.78;6165287;28;20227;-72
2024/04/06 13:46:25;;;;;;;1.80;1.08;;;;;;;26.52;80.00;101022.00;6162755;28;20514;-72
2024/04/06 13:49:46;;;;;;;0.50;0.50;;;;;;;25.69;83.88;101031.22;6166874;28;20333;-71
2024/04/06 13:53:06;;;;;;;0.98;0.90;;;;;;;25.89;85.76;101020.75;6169651;28;20238;-71
2024/04/06 13:56:27;;;;;;;0.70;0.70;;;;;;;26.08;88.34;100997.56;6166686;28;20238;-72
2024/04/06 13:59:50;;;;;;;1.23;0.90;;;;;;;24.22;97.65;101008.16;6142400;28;20239;-72
2024/04/06 14:03:11;;;;;;;1.00;0.85;;;;;;;23.33;100.00;100988.84;6166847;28;20238;-72
2024/04/06 14:06:31;;;;;;;0.88;0.73;;;;;;;23.40;100.00;101003.44;6159695;28;20234;-72
2024/04/06 14:09:52;;;;;;;1.65;0.93;;;;;;;24.36;100.00;100998.72;6164105;28;20607;-72
2024/04/06 14:13:13;;;;;;;0.88;0.57;;;;;;;23.60;100.00;101003.34;6166926;28;20519;-72
2024/04/06 14:16:35;;;;;;;2.80;1.08;;;;;;;23.67;100.00;100999.53;6159446;28;20313;-72
2024/04/06 14:19:55;;;;;;;1.90;1.27;;;;;;;23.37;100.00;100994.75;6163775;28;21491;-72
2024/04/06 14:23:17;;;;;;;3.10;1.10;;;;;;;23.03;100.00;100993.94;6160976;28;20265;-72
2024/04/06 14:26:37;;;;;;;0.88;0.88;;;;;;;22.73;100.00;100980.88;6157716;28;20234;-72
2024/04/06 14:30:22;;;;;;;0.77;0.47;;;;;;;22.79;100.00;100969.88;6154518;28;20230;-72
2024/04/06 14:33:43;;;;;;;0.82;0.82;;;;;;;22.94;100.00;100956.75;6153784;28;20238;-71
2024/04/06 14:37:03;;;;;;;1.17;0.90;;;;;;;22.90;100.00;100955.50;6163300;28;20231;-71
2024/04/06 14:40:24;;;;;;;0.77;0.70;;;;;;;22.92;100.00;100955.28;6155921;28;20225;-72
2024/04/06 14:43:45;;;;;;;2.70;0.90;;;;;;;23.32;100.00;100956.84;6159737;28;20237;-72
2024/04/06 14:47:06;;;;;;;1.27;0.85;;;;;;;23.84;100.00;100944.78;6156403;28;20328;-73
2024/04/06 14:50:27;;;;;;;1.08;1.00;;;;;;;24.11;100.00;100945.47;6157055;28;20562;-72
2024/04/06 14:53:48;;;;;;;2.55;1.27;;;;;;;24.53;100.00;100951.06;6149523;28;21537;-75
2024/04/06 14:57:08;;;;;;;1.33;1.23;;;;;;;24.09;100.00;100939.34;6158635;28;20234;-71
2024/04/06 15:00:30;;;;;;;0.90;0.88;;;;;;;23.58;100.00;100945.75;6155167;28;21432;-76
2024/04/06 15:03:51;;;;;;;1.80;0.80;;;;;;;23.84;100.00;100939.28;6159088;28;20223;-75
2024/04/06 15:07:13;;;;;;;1.42;1.00;;;;;;;23.49;100.00;100926.97;6141753;28;20230;-78
2024/04/06 15:10:34;;;;;;;1.85;0.82;;;;;;;23.16;100.00;100932.56;6143029;28;20633;-73
2024/04/06 15:13:54;;;;;;;1.05;0.80;;;;;;;23.20;100.00;100931.06;6162662;28;20237;-72
2024/04/06 15:17:15;;;;;;;2.28;0.80;;;;;;;23.27;100.00;100909.03;6157866;28;20237;-75
2024/04/06 15:20:38;;;;;;;1.42;0.70;;;;;;;23.07;100.00;100883.50;6162537;28;20239;-79
2024/04/06 15:24:00;;;;;;;1.55;0.90;;;;;;;23.20;100.00;100870.53;6167223;28;20728;-73